General Aviation Weather

Text Reports

Enter one or more of the following location identifiers separated by a space:

Zip Code, Four-Character ICAO or Three-Character IATA airport codes.

METAR - Aviation Routine Weather Report
K1F0 - Ardmore Downtown, Oklahoma
Updated at 4:30 PM GMT on August 01, 2015 (11:30 AM CDT):
METAR K1F0 011630Z AUTO 15006KT 10SM SCT080 SCT100 30/18 A3010 RMK AO2
TAF - Terminal Area Forecast
K1F0 - Ardmore Downtown, Oklahoma
Updated at 4:30 PM GMT on August 01, 2015 (11:30 AM CDT):
No TAF is currently available for this location.
Decoded:
No decoded TAF is available.
PIREP - Pilot Weather Report
K1F0 - Ardmore Downtown, Oklahoma
Updated at 4:30 PM GMT on August 01, 2015 (11:30 AM CDT):
No PIREP is currently available for this location.
AIRMET - Airmens Meteorological Information
K1F0 - Ardmore Downtown, Oklahoma
Updated at 4:30 PM GMT on August 01, 2015 (11:30 AM CDT):
No AIRMET is currently available for this location.
SIGMET - Significant Meteorological Information
K1F0 - Ardmore Downtown, Oklahoma
Updated at 4:30 PM GMT on August 01, 2015 (11:30 AM CDT):
No SIGMET is currently available for this location.
NOTAM - Notice to Airmen
K1F0 - Ardmore Downtown, Oklahoma
Updated at 4:30 PM GMT on August 01, 2015 (11:30 AM CDT):
No NOTAM is currently available for this location.
Forecast Area
K1F0 - Ardmore Downtown, Oklahoma
Updated at 4:30 PM GMT on August 01, 2015 (11:30 AM CDT):
No NOTAM is currently available for this location.
Aviation Weather Maps